sensor_id;sensor_type;location;lat;lon;timestamp;P1;durP1;ratioP1;P2;durP2;ratioP2
9310;SDS011;4694;52.464;13.480;2023-06-26T05:02:06;28.08;;;22.65;;
9310;SDS011;4694;52.464;13.480;2023-06-26T05:04:33;24.63;;;22.00;;
9310;SDS011;4694;52.464;13.480;2023-06-26T05:07:00;29.42;;;22.55;;
9310;SDS011;4694;52.464;13.480;2023-06-26T05:09:27;24.95;;;21.65;;
9310;SDS011;4694;52.464;13.480;2023-06-26T05:11:54;24.55;;;21.52;;
9310;SDS011;4694;52.464;13.480;2023-06-26T05:14:21;26.50;;;22.48;;
9310;SDS011;4694;52.464;13.480;2023-06-26T05:16:48;23.95;;;21.40;;
9310;SDS011;4694;52.464;13.480;2023-06-26T05:19:17;26.70;;;20.77;;
9310;SDS011;4694;52.464;13.480;2023-06-26T05:21:44;24.35;;;21.80;;
9310;SDS011;4694;52.464;13.480;2023-06-26T05:24:11;23.33;;;20.80;;
9310;SDS011;4694;52.464;13.480;2023-06-26T05:26:40;22.35;;;19.83;;
9310;SDS011;4694;52.464;13.480;2023-06-26T05:29:07;22.38;;;19.63;;
9310;SDS011;4694;52.464;13.480;2023-06-26T05:31:34;21.75;;;19.55;;
9310;SDS011;4694;52.464;13.480;2023-06-26T05:34:05;20.75;;;17.83;;
9310;SDS011;4694;52.464;13.480;2023-06-26T05:36:35;20.60;;;18.50;;
9310;SDS011;4694;52.464;13.480;2023-06-26T05:39:02;21.38;;;17.80;;
9310;SDS011;4694;52.464;13.480;2023-06-26T05:41:30;19.73;;;17.73;;
9310;SDS011;4694;52.464;13.480;2023-06-26T05:43:57;19.25;;;17.27;;
9310;SDS011;4694;52.464;13.480;2023-06-26T05:46:24;23.80;;;18.00;;
9310;SDS011;4694;52.464;13.480;2023-06-26T05:48:51;18.63;;;16.55;;
9310;SDS011;4694;52.464;13.480;2023-06-26T05:51:18;21.58;;;17.95;;
9310;SDS011;4694;52.464;13.480;2023-06-26T05:53:47;18.60;;;16.60;;
9310;SDS011;4694;52.464;13.480;2023-06-26T05:56:15;20.08;;;17.80;;
9310;SDS011;4694;52.464;13.480;2023-06-26T05:58:43;21.65;;;18.13;;
9310;SDS011;4694;52.464;13.480;2023-06-26T06:01:10;21.38;;;18.02;;
9310;SDS011;4694;52.464;13.480;2023-06-26T06:03:38;19.35;;;17.45;;
9310;SDS011;4694;52.464;13.480;2023-06-26T06:06:05;19.02;;;17.08;;
9310;SDS011;4694;52.464;13.480;2023-06-26T06:08:32;21.85;;;18.92;;
9310;SDS011;4694;52.464;13.480;2023-06-26T06:11:01;17.98;;;15.20;;
9310;SDS011;4694;52.464;13.480;2023-06-26T06:13:28;18.10;;;15.73;;
9310;SDS011;4694;52.464;13.480;2023-06-26T06:15:55;17.80;;;15.90;;
9310;SDS011;4694;52.464;13.480;2023-06-26T06:18:22;19.00;;;14.88;;
9310;SDS011;4694;52.464;13.480;2023-06-26T06:20:50;16.58;;;14.90;;
9310;SDS011;4694;52.464;13.480;2023-06-26T06:23:20;20.92;;;17.48;;
9310;SDS011;4694;52.464;13.480;2023-06-26T06:25:48;16.35;;;13.75;;
9310;SDS011;4694;52.464;13.480;2023-06-26T06:28:16;16.10;;;13.50;;
9310;SDS011;4694;52.464;13.480;2023-06-26T06:30:44;17.65;;;12.50;;
9310;SDS011;4694;52.464;13.480;2023-06-26T06:33:12;15.95;;;12.48;;
9310;SDS011;4694;52.464;13.480;2023-06-26T06:35:39;16.02;;;12.45;;
9310;SDS011;4694;52.464;13.480;2023-06-26T06:38:06;13.98;;;11.73;;
9310;SDS011;4694;52.464;13.480;2023-06-26T06:40:33;16.80;;;11.77;;
9310;SDS011;4694;52.464;13.480;2023-06-26T06:43:00;13.30;;;11.60;;
9310;SDS011;4694;52.464;13.480;2023-06-26T06:45:28;15.52;;;12.23;;
9310;SDS011;4694;52.464;13.480;2023-06-26T06:47:55;10.93;;;9.85;;
9310;SDS011;4694;52.464;13.480;2023-06-26T06:50:23;12.73;;;11.43;;
9310;SDS011;4694;52.464;13.480;2023-06-26T06:52:50;13.07;;;10.75;;
9310;SDS011;4694;52.464;13.480;2023-06-26T06:55:17;12.25;;;10.50;;
9310;SDS011;4694;52.464;13.480;2023-06-26T06:57:44;12.07;;;9.93;;
9310;SDS011;4694;52.464;13.480;2023-06-26T07:00:11;12.13;;;10.73;;
9310;SDS011;4694;52.464;13.480;2023-06-26T07:02:41;12.02;;;10.73;;
9310;SDS011;4694;52.464;13.480;2023-06-26T07:05:08;11.10;;;9.90;;
9310;SDS011;4694;52.464;13.480;2023-06-26T07:07:36;12.00;;;10.60;;
9310;SDS011;4694;52.464;13.480;2023-06-26T07:10:04;13.70;;;9.95;;
9310;SDS011;4694;52.464;13.480;2023-06-26T07:12:31;9.57;;;8.73;;
9310;SDS011;4694;52.464;13.480;2023-06-26T07:14:59;11.75;;;9.88;;
9310;SDS011;4694;52.464;13.480;2023-06-26T07:17:27;9.75;;;8.80;;
9310;SDS011;4694;52.464;13.480;2023-06-26T07:19:56;10.38;;;9.25;;
9310;SDS011;4694;52.464;13.480;2023-06-26T07:22:23;10.00;;;8.38;;
9310;SDS011;4694;52.464;13.480;2023-06-26T07:24:50;12.13;;;8.77;;
9310;SDS011;4694;52.464;13.480;2023-06-26T07:27:17;9.00;;;8.20;;
9310;SDS011;4694;52.464;13.480;2023-06-26T07:29:44;9.52;;;8.38;;
9310;SDS011;4694;52.464;13.480;2023-06-26T07:32:11;8.20;;;7.50;;
9310;SDS011;4694;52.464;13.480;2023-06-26T07:34:39;8.07;;;7.38;;
9310;SDS011;4694;52.464;13.480;2023-06-26T07:37:07;8.32;;;7.47;;
9310;SDS011;4694;52.464;13.480;2023-06-26T07:39:34;9.90;;;8.88;;
9310;SDS011;4694;52.464;13.480;2023-06-26T07:42:01;8.00;;;7.30;;
9310;SDS011;4694;52.464;13.480;2023-06-26T07:44:28;7.70;;;7.00;;
9310;SDS011;4694;52.464;13.480;2023-06-26T07:46:55;8.35;;;7.43;;
9310;SDS011;4694;52.464;13.480;2023-06-26T07:49:22;10.32;;;6.93;;
9310;SDS011;4694;52.464;13.480;2023-06-26T07:51:50;8.15;;;7.30;;
9310;SDS011;4694;52.464;13.480;2023-06-26T07:54:18;8.40;;;7.57;;
9310;SDS011;4694;52.464;13.480;2023-06-26T07:56:52;8.68;;;6.18;;
9310;SDS011;4694;52.464;13.480;2023-06-26T07:59:20;6.40;;;5.80;;
9310;SDS011;4694;52.464;13.480;2023-06-26T08:01:48;9.68;;;6.25;;
9310;SDS011;4694;52.464;13.480;2023-06-26T08:04:15;7.05;;;6.35;;
9310;SDS011;4694;52.464;13.480;2023-06-26T08:06:42;6.55;;;5.95;;
9310;SDS011;4694;52.464;13.480;2023-06-26T08:09:10;5.68;;;5.18;;
9310;SDS011;4694;52.464;13.480;2023-06-26T08:11:39;5.35;;;4.95;;
9310;SDS011;4694;52.464;13.480;2023-06-26T08:14:06;5.35;;;4.95;;
9310;SDS011;4694;52.464;13.480;2023-06-26T08:16:33;4.80;;;4.40;;
9310;SDS011;4694;52.464;13.480;2023-06-26T08:19:00;5.05;;;4.68;;
9310;SDS011;4694;52.464;13.480;2023-06-26T08:21:27;5.72;;;5.22;;
9310;SDS011;4694;52.464;13.480;2023-06-26T08:23:55;4.95;;;4.43;;
9310;SDS011;4694;52.464;13.480;2023-06-26T08:26:22;5.78;;;5.13;;
9310;SDS011;4694;52.464;13.480;2023-06-26T08:28:51;4.70;;;4.30;;
9310;SDS011;4694;52.464;13.480;2023-06-26T08:31:18;5.57;;;5.05;;
9310;SDS011;4694;52.464;13.480;2023-06-26T08:33:45;5.10;;;4.35;;
9310;SDS011;4694;52.464;13.480;2023-06-26T08:36:12;4.90;;;4.50;;
9310;SDS011;4694;52.464;13.480;2023-06-26T08:38:40;4.82;;;4.45;;
9310;SDS011;4694;52.464;13.480;2023-06-26T08:41:07;4.10;;;3.72;;
9310;SDS011;4694;52.464;13.480;2023-06-26T08:43:34;5.97;;;4.70;;
9310;SDS011;4694;52.464;13.480;2023-06-26T08:46:03;5.03;;;4.72;;
9310;SDS011;4694;52.464;13.480;2023-06-26T08:48:31;4.65;;;4.25;;
9310;SDS011;4694;52.464;13.480;2023-06-26T08:50:59;4.63;;;4.22;;
9310;SDS011;4694;52.464;13.480;2023-06-26T08:53:29;5.07;;;4.68;;
9310;SDS011;4694;52.464;13.480;2023-06-26T08:55:57;4.78;;;4.43;;
9310;SDS011;4694;52.464;13.480;2023-06-26T08:58:25;4.25;;;3.90;;
9310;SDS011;4694;52.464;13.480;2023-06-26T09:00:52;4.88;;;4.57;;
9310;SDS011;4694;52.464;13.480;2023-06-26T09:03:22;4.32;;;3.90;;
9310;SDS011;4694;52.464;13.480;2023-06-26T09:05:50;5.05;;;4.40;;
9310;SDS011;4694;52.464;13.480;2023-06-26T09:08:18;4.45;;;4.05;;
9310;SDS011;4694;52.464;13.480;2023-06-26T09:10:45;5.80;;;5.22;;
9310;SDS011;4694;52.464;13.480;2023-06-26T09:13:12;5.40;;;4.07;;
9310;SDS011;4694;52.464;13.480;2023-06-26T09:15:41;5.90;;;4.03;;
9310;SDS011;4694;52.464;13.480;2023-06-26T09:18:09;4.43;;;4.03;;
9310;SDS011;4694;52.464;13.480;2023-06-26T09:20:37;5.53;;;5.07;;
9310;SDS011;4694;52.464;13.480;2023-06-26T09:23:06;3.57;;;3.27;;
9310;SDS011;4694;52.464;13.480;2023-06-26T09:25:37;5.03;;;4.68;;
9310;SDS011;4694;52.464;13.480;2023-06-26T09:28:06;4.70;;;4.18;;
9310;SDS011;4694;52.464;13.480;2023-06-26T09:30:33;4.78;;;4.28;;
9310;SDS011;4694;52.464;13.480;2023-06-26T09:33:07;4.60;;;4.25;;
9310;SDS011;4694;52.464;13.480;2023-06-26T09:35:41;6.18;;;4.00;;
9310;SDS011;4694;52.464;13.480;2023-06-26T09:38:09;3.85;;;3.55;;
9310;SDS011;4694;52.464;13.480;2023-06-26T09:40:36;4.80;;;4.25;;
9310;SDS011;4694;52.464;13.480;2023-06-26T09:43:04;4.00;;;3.80;;
9310;SDS011;4694;52.464;13.480;2023-06-26T09:45:31;4.82;;;4.43;;
9310;SDS011;4694;52.464;13.480;2023-06-26T09:47:59;5.20;;;4.80;;
9310;SDS011;4694;52.464;13.480;2023-06-26T09:50:27;4.30;;;4.00;;
9310;SDS011;4694;52.464;13.480;2023-06-26T09:52:56;4.65;;;4.25;;
9310;SDS011;4694;52.464;13.480;2023-06-26T09:55:23;5.60;;;5.10;;
9310;SDS011;4694;52.464;13.480;2023-06-26T09:57:50;4.50;;;4.20;;
9310;SDS011;4694;52.464;13.480;2023-06-26T10:00:18;4.57;;;4.28;;
9310;SDS011;4694;52.464;13.480;2023-06-26T10:02:46;5.13;;;4.72;;
9310;SDS011;4694;52.464;13.480;2023-06-26T10:05:13;4.32;;;3.70;;
9310;SDS011;4694;52.464;13.480;2023-06-26T10:07:40;4.50;;;4.20;;
9310;SDS011;4694;52.464;13.480;2023-06-26T10:10:09;4.82;;;4.30;;
9310;SDS011;4694;52.464;13.480;2023-06-26T10:12:37;4.30;;;3.90;;
9310;SDS011;4694;52.464;13.480;2023-06-26T10:15:04;5.22;;;4.80;;
9310;SDS011;4694;52.464;13.480;2023-06-26T10:17:37;4.78;;;4.47;;
9310;SDS011;4694;52.464;13.480;2023-06-26T10:20:06;5.75;;;4.50;;
9310;SDS011;4694;52.464;13.480;2023-06-26T10:25:01;4.63;;;4.32;;
9310;SDS011;4694;52.464;13.480;2023-06-26T10:27:33;4.88;;;3.92;;
9310;SDS011;4694;52.464;13.480;2023-06-26T10:30:02;4.70;;;4.40;;
9310;SDS011;4694;52.464;13.480;2023-06-26T10:32:30;5.90;;;4.32;;
9310;SDS011;4694;52.464;13.480;2023-06-26T10:34:57;4.82;;;4.40;;
9310;SDS011;4694;52.464;13.480;2023-06-26T10:37:43;4.30;;;3.92;;
9310;SDS011;4694;52.464;13.480;2023-06-26T10:40:13;5.03;;;4.63;;
9310;SDS011;4694;52.464;13.480;2023-06-26T10:42:41;4.28;;;3.97;;
9310;SDS011;4694;52.464;13.480;2023-06-26T10:45:09;4.32;;;4.03;;
9310;SDS011;4694;52.464;13.480;2023-06-26T10:47:37;4.38;;;4.07;;
9310;SDS011;4694;52.464;13.480;2023-06-26T10:50:22;3.75;;;3.55;;
9310;SDS011;4694;52.464;13.480;2023-06-26T10:53:06;4.43;;;4.03;;
9310;SDS011;4694;52.464;13.480;2023-06-26T10:55:34;3.72;;;3.53;;
9310;SDS011;4694;52.464;13.480;2023-06-26T10:58:04;3.90;;;3.63;;
9310;SDS011;4694;52.464;13.480;2023-06-26T11:00:31;4.60;;;4.15;;
9310;SDS011;4694;52.464;13.480;2023-06-26T11:02:58;4.30;;;4.00;;
9310;SDS011;4694;52.464;13.480;2023-06-26T11:05:26;4.00;;;3.70;;
9310;SDS011;4694;52.464;13.480;2023-06-26T11:08:03;3.95;;;3.75;;
9310;SDS011;4694;52.464;13.480;2023-06-26T11:13:14;3.88;;;3.63;;
9310;SDS011;4694;52.464;13.480;2023-06-26T11:15:42;4.13;;;3.65;;
9310;SDS011;4694;52.464;13.480;2023-06-26T11:18:11;4.47;;;4.07;;
9310;SDS011;4694;52.464;13.480;2023-06-26T11:20:38;4.57;;;4.18;;
9310;SDS011;4694;52.464;13.480;2023-06-26T11:23:06;4.22;;;3.92;;
9310;SDS011;4694;52.464;13.480;2023-06-26T11:28:02;4.10;;;3.80;;
9310;SDS011;4694;52.464;13.480;2023-06-26T11:30:31;4.55;;;4.25;;
9310;SDS011;4694;52.464;13.480;2023-06-26T11:33:05;4.72;;;4.18;;
9310;SDS011;4694;52.464;13.480;2023-06-26T11:35:32;4.05;;;3.85;;
9310;SDS011;4694;52.464;13.480;2023-06-26T11:38:01;4.55;;;4.25;;
9310;SDS011;4694;52.464;13.480;2023-06-26T11:40:30;4.05;;;3.85;;
9310;SDS011;4694;52.464;13.480;2023-06-26T11:42:57;3.88;;;3.67;;
9310;SDS011;4694;52.464;13.480;2023-06-26T11:45:24;4.95;;;4.18;;
9310;SDS011;4694;52.464;13.480;2023-06-26T11:47:54;4.55;;;4.25;;
9310;SDS011;4694;52.464;13.480;2023-06-26T11:50:21;4.43;;;4.22;;
9310;SDS011;4694;52.464;13.480;2023-06-26T11:52:52;5.68;;;4.22;;
9310;SDS011;4694;52.464;13.480;2023-06-26T11:55:20;4.63;;;4.32;;
9310;SDS011;4694;52.464;13.480;2023-06-26T11:57:48;4.20;;;3.90;;
9310;SDS011;4694;52.464;13.480;2023-06-26T12:00:15;4.50;;;4.10;;
9310;SDS011;4694;52.464;13.480;2023-06-26T12:02:43;3.92;;;3.67;;
9310;SDS011;4694;52.464;13.480;2023-06-26T12:05:12;4.45;;;4.15;;
9310;SDS011;4694;52.464;13.480;2023-06-26T12:07:40;4.57;;;4.28;;
9310;SDS011;4694;52.464;13.480;2023-06-26T12:10:08;4.43;;;4.23;;
9310;SDS011;4694;52.464;13.480;2023-06-26T12:12:36;4.72;;;4.28;;
9310;SDS011;4694;52.464;13.480;2023-06-26T12:15:04;4.28;;;3.97;;
9310;SDS011;4694;52.464;13.480;2023-06-26T12:19:59;4.53;;;4.20;;
9310;SDS011;4694;52.464;13.480;2023-06-26T12:22:34;4.95;;;4.63;;
9310;SDS011;4694;52.464;13.480;2023-06-26T12:25:01;4.93;;;4.63;;
9310;SDS011;4694;52.464;13.480;2023-06-26T12:27:28;4.20;;;3.78;;
9310;SDS011;4694;52.464;13.480;2023-06-26T12:29:55;4.82;;;4.53;;
9310;SDS011;4694;52.464;13.480;2023-06-26T12:32:23;4.57;;;4.20;;
9310;SDS011;4694;52.464;13.480;2023-06-26T12:34:50;4.55;;;4.28;;
9310;SDS011;4694;52.464;13.480;2023-06-26T12:37:18;4.30;;;3.95;;
9310;SDS011;4694;52.464;13.480;2023-06-26T12:39:47;4.82;;;4.53;;
9310;SDS011;4694;52.464;13.480;2023-06-26T12:42:14;5.18;;;4.88;;
9310;SDS011;4694;52.464;13.480;2023-06-26T12:44:41;5.80;;;5.35;;
9310;SDS011;4694;52.464;13.480;2023-06-26T12:47:08;5.38;;;4.80;;
9310;SDS011;4694;52.464;13.480;2023-06-26T12:49:38;6.10;;;5.13;;
9310;SDS011;4694;52.464;13.480;2023-06-26T12:52:07;5.05;;;4.80;;
9310;SDS011;4694;52.464;13.480;2023-06-26T12:54:34;4.97;;;4.72;;
9310;SDS011;4694;52.464;13.480;2023-06-26T12:57:03;5.83;;;5.50;;
9310;SDS011;4694;52.464;13.480;2023-06-26T12:59:31;5.38;;;5.05;;
9310;SDS011;4694;52.464;13.480;2023-06-26T13:01:58;5.75;;;5.32;;
9310;SDS011;4694;52.464;13.480;2023-06-26T13:04:25;6.40;;;5.90;;
9310;SDS011;4694;52.464;13.480;2023-06-26T13:06:53;5.47;;;5.05;;
9310;SDS011;4694;52.464;13.480;2023-06-26T13:09:20;5.95;;;5.53;;
9310;SDS011;4694;52.464;13.480;2023-06-26T13:11:47;6.35;;;5.85;;
9310;SDS011;4694;52.464;13.480;2023-06-26T13:14:16;5.55;;;5.15;;
9310;SDS011;4694;52.464;13.480;2023-06-26T13:16:43;6.40;;;5.90;;
9310;SDS011;4694;52.464;13.480;2023-06-26T13:19:10;5.47;;;5.18;;
9310;SDS011;4694;52.464;13.480;2023-06-26T13:21:37;6.57;;;5.97;;
9310;SDS011;4694;52.464;13.480;2023-06-26T13:24:05;6.45;;;5.95;;
9310;SDS011;4694;52.464;13.480;2023-06-26T13:26:32;5.82;;;5.32;;
9310;SDS011;4694;52.464;13.480;2023-06-26T13:28:59;5.32;;;4.95;;
9310;SDS011;4694;52.464;13.480;2023-06-26T13:34:57;6.43;;;4.78;;
9310;SDS011;4694;52.464;13.480;2023-06-26T13:37:24;5.38;;;4.38;;
9310;SDS011;4694;52.464;13.480;2023-06-26T13:39:51;4.40;;;4.00;;
9310;SDS011;4694;52.464;13.480;2023-06-26T13:42:18;5.18;;;4.68;;
9310;SDS011;4694;52.464;13.480;2023-06-26T13:44:45;5.25;;;4.07;;
9310;SDS011;4694;52.464;13.480;2023-06-26T13:47:13;6.15;;;4.60;;
9310;SDS011;4694;52.464;13.480;2023-06-26T13:49:40;4.72;;;4.30;;
9310;SDS011;4694;52.464;13.480;2023-06-26T13:52:08;5.90;;;5.40;;
9310;SDS011;4694;52.464;13.480;2023-06-26T13:54:35;6.47;;;5.88;;
9310;SDS011;4694;52.464;13.480;2023-06-26T13:57:04;6.55;;;5.28;;
9310;SDS011;4694;52.464;13.480;2023-06-26T13:59:36;5.65;;;4.97;;
9310;SDS011;4694;52.464;13.480;2023-06-26T14:02:04;5.47;;;4.28;;
9310;SDS011;4694;52.464;13.480;2023-06-26T14:04:32;4.93;;;4.43;;
9310;SDS011;4694;52.464;13.480;2023-06-26T14:06:59;5.60;;;4.90;;
9310;SDS011;4694;52.464;13.480;2023-06-26T14:09:28;5.95;;;5.43;;
9310;SDS011;4694;52.464;13.480;2023-06-26T14:11:55;8.05;;;6.68;;
9310;SDS011;4694;52.464;13.480;2023-06-26T14:14:22;5.18;;;4.70;;
9310;SDS011;4694;52.464;13.480;2023-06-26T14:16:49;6.75;;;5.80;;
9310;SDS011;4694;52.464;13.480;2023-06-26T14:19:16;6.10;;;5.47;;
9310;SDS011;4694;52.464;13.480;2023-06-26T14:21:44;6.40;;;5.80;;
9310;SDS011;4694;52.464;13.480;2023-06-26T14:24:11;6.07;;;5.47;;
9310;SDS011;4694;52.464;13.480;2023-06-26T14:30:21;10.25;;;3.63;;
9310;SDS011;4694;52.464;13.480;2023-06-26T14:32:47;16.23;;;4.25;;
9310;SDS011;4694;52.464;13.480;2023-06-26T14:35:14;10.82;;;5.15;;
9310;SDS011;4694;52.464;13.480;2023-06-26T14:37:41;5.95;;;3.72;;
9310;SDS011;4694;52.464;13.480;2023-06-26T14:40:09;6.97;;;3.60;;
9310;SDS011;4694;52.464;13.480;2023-06-26T14:42:36;7.30;;;3.10;;
9310;SDS011;4694;52.464;13.480;2023-06-26T14:45:03;7.32;;;3.85;;
9310;SDS011;4694;52.464;13.480;2023-06-26T14:47:32;8.32;;;4.38;;
9310;SDS011;4694;52.464;13.480;2023-06-26T14:49:58;9.95;;;4.78;;
9310;SDS011;4694;52.464;13.480;2023-06-26T14:52:25;5.07;;;4.60;;
9310;SDS011;4694;52.464;13.480;2023-06-26T14:54:52;7.13;;;5.68;;
9310;SDS011;4694;52.464;13.480;2023-06-26T14:57:19;8.32;;;5.75;;
9310;SDS011;4694;52.464;13.480;2023-06-26T14:59:45;9.02;;;5.80;;
9310;SDS011;4694;52.464;13.480;2023-06-26T15:02:12;9.20;;;6.10;;
9310;SDS011;4694;52.464;13.480;2023-06-26T15:04:40;11.63;;;6.95;;
9310;SDS011;4694;52.464;13.480;2023-06-26T15:07:06;10.65;;;7.80;;
9310;SDS011;4694;52.464;13.480;2023-06-26T15:09:33;14.73;;;9.02;;
9310;SDS011;4694;52.464;13.480;2023-06-26T15:12:00;9.98;;;7.97;;
9310;SDS011;4694;52.464;13.480;2023-06-26T15:14:27;10.18;;;8.73;;
9310;SDS011;4694;52.464;13.480;2023-06-26T15:16:54;12.35;;;9.30;;
9310;SDS011;4694;52.464;13.480;2023-06-26T15:19:21;14.65;;;12.15;;
9310;SDS011;4694;52.464;13.480;2023-06-26T15:21:49;20.13;;;13.15;;
9310;SDS011;4694;52.464;13.480;2023-06-26T15:24:15;18.95;;;15.25;;
9310;SDS011;4694;52.464;13.480;2023-06-26T15:26:42;17.05;;;14.40;;
9310;SDS011;4694;52.464;13.480;2023-06-26T15:29:09;16.58;;;14.38;;
9310;SDS011;4694;52.464;13.480;2023-06-26T15:31:35;13.13;;;11.30;;
9310;SDS011;4694;52.464;13.480;2023-06-26T15:34:02;13.40;;;8.90;;
9310;SDS011;4694;52.464;13.480;2023-06-26T15:36:29;12.25;;;9.48;;
9310;SDS011;4694;52.464;13.480;2023-06-26T15:38:57;9.88;;;8.00;;
9310;SDS011;4694;52.464;13.480;2023-06-26T15:41:24;14.80;;;8.93;;
9310;SDS011;4694;52.464;13.480;2023-06-26T15:43:50;9.57;;;7.32;;
9310;SDS011;4694;52.464;13.480;2023-06-26T15:46:17;11.00;;;8.50;;
9310;SDS011;4694;52.464;13.480;2023-06-26T15:48:43;9.65;;;6.82;;
9310;SDS011;4694;52.464;13.480;2023-06-26T15:51:10;10.20;;;7.70;;
9310;SDS011;4694;52.464;13.480;2023-06-26T15:53:39;7.10;;;6.28;;
9310;SDS011;4694;52.464;13.480;2023-06-26T15:56:09;9.55;;;6.53;;
9310;SDS011;4694;52.464;13.480;2023-06-26T15:58:37;11.93;;;7.73;;
9310;SDS011;4694;52.464;13.480;2023-06-26T16:01:07;7.57;;;6.55;;
9310;SDS011;4694;52.464;13.480;2023-06-26T16:03:34;12.57;;;8.73;;
9310;SDS011;4694;52.464;13.480;2023-06-26T16:06:01;9.48;;;7.28;;
9310;SDS011;4694;52.464;13.480;2023-06-26T16:08:28;10.05;;;7.63;;
9310;SDS011;4694;52.464;13.480;2023-06-26T16:10:54;8.20;;;7.32;;
9310;SDS011;4694;52.464;13.480;2023-06-26T16:13:22;11.50;;;8.20;;
9310;SDS011;4694;52.464;13.480;2023-06-26T16:15:50;12.00;;;8.63;;
9310;SDS011;4694;52.464;13.480;2023-06-26T16:18:17;9.25;;;8.25;;
9310;SDS011;4694;52.464;13.480;2023-06-26T16:20:44;11.70;;;8.07;;
9310;SDS011;4694;52.464;13.480;2023-06-26T16:23:11;13.18;;;8.85;;
9310;SDS011;4694;52.464;13.480;2023-06-26T16:25:37;9.43;;;8.18;;
9310;SDS011;4694;52.464;13.480;2023-06-26T16:28:04;12.02;;;8.35;;
9310;SDS011;4694;52.464;13.480;2023-06-26T16:30:32;11.07;;;7.85;;
9310;SDS011;4694;52.464;13.480;2023-06-26T16:32:59;8.98;;;8.07;;
9310;SDS011;4694;52.464;13.480;2023-06-26T16:35:26;10.43;;;8.15;;
9310;SDS011;4694;52.464;13.480;2023-06-26T16:37:54;10.77;;;8.43;;
9310;SDS011;4694;52.464;13.480;2023-06-26T16:40:21;11.05;;;8.18;;
9310;SDS011;4694;52.464;13.480;2023-06-26T16:42:48;10.00;;;8.38;;
9310;SDS011;4694;52.464;13.480;2023-06-26T16:45:14;9.38;;;7.45;;
9310;SDS011;4694;52.464;13.480;2023-06-26T16:47:42;10.82;;;7.43;;
9310;SDS011;4694;52.464;13.480;2023-06-26T16:50:09;12.32;;;7.90;;
9310;SDS011;4694;52.464;13.480;2023-06-26T16:52:36;10.48;;;8.75;;
9310;SDS011;4694;52.464;13.480;2023-06-26T16:55:03;12.57;;;8.98;;
9310;SDS011;4694;52.464;13.480;2023-06-26T16:57:30;10.52;;;9.43;;
9310;SDS011;4694;52.464;13.480;2023-06-26T16:59:56;10.18;;;8.57;;
9310;SDS011;4694;52.464;13.480;2023-06-26T17:02:23;13.38;;;9.90;;
9310;SDS011;4694;52.464;13.480;2023-06-26T17:04:51;11.30;;;9.57;;
9310;SDS011;4694;52.464;13.480;2023-06-26T17:07:18;12.60;;;9.25;;
9310;SDS011;4694;52.464;13.480;2023-06-26T17:09:45;10.55;;;8.10;;
9310;SDS011;4694;52.464;13.480;2023-06-26T17:12:12;9.77;;;8.60;;
9310;SDS011;4694;52.464;13.480;2023-06-26T17:14:38;10.15;;;8.02;;
9310;SDS011;4694;52.464;13.480;2023-06-26T17:17:05;12.63;;;9.38;;
9310;SDS011;4694;52.464;13.480;2023-06-26T17:19:32;9.20;;;8.30;;
9310;SDS011;4694;52.464;13.480;2023-06-26T17:22:02;10.10;;;7.93;;
9310;SDS011;4694;52.464;13.480;2023-06-26T17:24:29;8.32;;;7.50;;
9310;SDS011;4694;52.464;13.480;2023-06-26T17:27:06;10.43;;;7.53;;
9310;SDS011;4694;52.464;13.480;2023-06-26T17:29:34;9.25;;;7.72;;
9310;SDS011;4694;52.464;13.480;2023-06-26T17:32:00;10.20;;;7.90;;
9310;SDS011;4694;52.464;13.480;2023-06-26T17:34:27;10.40;;;8.95;;
9310;SDS011;4694;52.464;13.480;2023-06-26T17:36:53;9.05;;;7.50;;
9310;SDS011;4694;52.464;13.480;2023-06-26T17:39:21;11.05;;;8.75;;
9310;SDS011;4694;52.464;13.480;2023-06-26T17:41:49;12.27;;;8.07;;
9310;SDS011;4694;52.464;13.480;2023-06-26T17:44:16;9.85;;;7.63;;
9310;SDS011;4694;52.464;13.480;2023-06-26T17:46:42;11.40;;;9.05;;
9310;SDS011;4694;52.464;13.480;2023-06-26T17:49:09;11.32;;;8.23;;
9310;SDS011;4694;52.464;13.480;2023-06-26T17:51:35;10.18;;;7.72;;
9310;SDS011;4694;52.464;13.480;2023-06-26T17:54:02;11.60;;;7.57;;
9310;SDS011;4694;52.464;13.480;2023-06-26T17:56:30;13.75;;;7.85;;
9310;SDS011;4694;52.464;13.480;2023-06-26T17:58:57;8.55;;;7.38;;
9310;SDS011;4694;52.464;13.480;2023-06-26T18:01:23;17.60;;;9.00;;
9310;SDS011;4694;52.464;13.480;2023-06-26T18:03:50;8.88;;;7.93;;
9310;SDS011;4694;52.464;13.480;2023-06-26T18:06:17;7.15;;;6.45;;
9310;SDS011;4694;52.464;13.480;2023-06-26T18:08:43;9.52;;;7.18;;
9310;SDS011;4694;52.464;13.480;2023-06-26T18:11:10;8.02;;;7.10;;
9310;SDS011;4694;52.464;13.480;2023-06-26T18:13:38;9.20;;;7.60;;
9310;SDS011;4694;52.464;13.480;2023-06-26T18:16:04;12.27;;;8.13;;
9310;SDS011;4694;52.464;13.480;2023-06-26T18:18:33;9.40;;;7.40;;
9310;SDS011;4694;52.464;13.480;2023-06-26T18:21:00;10.88;;;6.93;;
9310;SDS011;4694;52.464;13.480;2023-06-26T18:23:27;11.75;;;7.72;;
9310;SDS011;4694;52.464;13.480;2023-06-26T18:25:53;11.10;;;7.57;;
9310;SDS011;4694;52.464;13.480;2023-06-26T18:28:20;9.88;;;6.95;;
9310;SDS011;4694;52.464;13.480;2023-06-26T18:30:48;11.38;;;7.82;;
9310;SDS011;4694;52.464;13.480;2023-06-26T18:33:15;9.18;;;6.93;;
9310;SDS011;4694;52.464;13.480;2023-06-26T18:35:41;10.70;;;7.70;;
9310;SDS011;4694;52.464;13.480;2023-06-26T18:38:08;10.45;;;8.38;;
9310;SDS011;4694;52.464;13.480;2023-06-26T18:40:36;10.07;;;7.30;;
9310;SDS011;4694;52.464;13.480;2023-06-26T18:43:03;9.73;;;7.00;;
9310;SDS011;4694;52.464;13.480;2023-06-26T18:45:30;13.55;;;8.02;;
9310;SDS011;4694;52.464;13.480;2023-06-26T18:47:58;13.55;;;7.00;;
9310;SDS011;4694;52.464;13.480;2023-06-26T18:50:25;7.68;;;6.65;;
9310;SDS011;4694;52.464;13.480;2023-06-26T18:52:52;12.48;;;7.80;;
9310;SDS011;4694;52.464;13.480;2023-06-26T18:55:19;8.48;;;7.35;;
9310;SDS011;4694;52.464;13.480;2023-06-26T18:57:46;12.05;;;8.38;;
9310;SDS011;4694;52.464;13.480;2023-06-26T19:00:13;9.60;;;7.97;;
9310;SDS011;4694;52.464;13.480;2023-06-26T19:02:42;10.30;;;7.43;;
9310;SDS011;4694;52.464;13.480;2023-06-26T19:05:10;8.65;;;7.68;;
9310;SDS011;4694;52.464;13.480;2023-06-26T19:07:39;10.57;;;8.20;;
9310;SDS011;4694;52.464;13.480;2023-06-26T19:10:06;8.25;;;7.45;;
9310;SDS011;4694;52.464;13.480;2023-06-26T19:12:35;9.20;;;7.13;;
9310;SDS011;4694;52.464;13.480;2023-06-26T19:15:02;11.25;;;6.60;;
9310;SDS011;4694;52.464;13.480;2023-06-26T19:17:29;7.60;;;5.97;;
9310;SDS011;4694;52.464;13.480;2023-06-26T19:19:56;10.23;;;6.32;;
9310;SDS011;4694;52.464;13.480;2023-06-26T19:22:24;10.25;;;7.18;;
9310;SDS011;4694;52.464;13.480;2023-06-26T19:24:52;7.78;;;6.32;;
9310;SDS011;4694;52.464;13.480;2023-06-26T19:27:19;12.07;;;7.82;;
9310;SDS011;4694;52.464;13.480;2023-06-26T19:29:45;10.50;;;6.95;;
9310;SDS011;4694;52.464;13.480;2023-06-26T19:32:12;10.23;;;6.88;;
9310;SDS011;4694;52.464;13.480;2023-06-26T19:34:39;8.35;;;6.30;;
9310;SDS011;4694;52.464;13.480;2023-06-26T19:37:05;7.82;;;5.63;;
9310;SDS011;4694;52.464;13.480;2023-06-26T19:39:33;14.25;;;7.20;;
9310;SDS011;4694;52.464;13.480;2023-06-26T19:42:00;9.93;;;5.97;;
9310;SDS011;4694;52.464;13.480;2023-06-26T19:44:27;9.07;;;6.53;;
9310;SDS011;4694;52.464;13.480;2023-06-26T19:46:54;10.18;;;6.53;;
9310;SDS011;4694;52.464;13.480;2023-06-26T19:49:20;8.38;;;5.35;;
9310;SDS011;4694;52.464;13.480;2023-06-26T19:51:48;9.52;;;6.22;;
9310;SDS011;4694;52.464;13.480;2023-06-26T19:54:15;9.02;;;4.70;;
9310;SDS011;4694;52.464;13.480;2023-06-26T19:56:43;7.68;;;4.05;;
9310;SDS011;4694;52.464;13.480;2023-06-26T19:59:10;8.48;;;3.53;;
9310;SDS011;4694;52.464;13.480;2023-06-26T20:01:37;5.43;;;3.90;;
9310;SDS011;4694;52.464;13.480;2023-06-26T20:04:03;7.03;;;4.82;;
9310;SDS011;4694;52.464;13.480;2023-06-26T20:06:34;7.72;;;3.40;;
9310;SDS011;4694;52.464;13.480;2023-06-26T20:09:02;5.10;;;3.03;;
9310;SDS011;4694;52.464;13.480;2023-06-26T20:11:29;8.40;;;3.53;;
9310;SDS011;4694;52.464;13.480;2023-06-26T20:13:57;8.27;;;2.25;;
9310;SDS011;4694;52.464;13.480;2023-06-26T20:16:25;4.78;;;2.05;;